Latest Weather Observations for Dunalley

IDT60801

Issued at 10:35 pm EST Wednesday 23 April 2014 (issued every 30 minutes, with the page automatically refreshed every 10 minutes)

About weather observations | Map of weather stations | Latest weather observations for TAS | Other Formats
Station Details ID: 094254 Name: DUNALLEY (STROUD POINT) Lat: -42.90 Lon: 147.79 Height: 12.43 m
Data from the previous 72 hours. | See also: Recent months at Dunalley
Date/Time
EST
Temp
°C
App
Temp
°C
Dew
Point
Rel
Hum
%
Delta-T
°C
Wind Press
QNH
hPa
Press
MSL
hPa
Rain
since 9 am
mm
Dir
 
Spd
km/h
Gust
km/h
Spd
kts
Gust
kts
23/10:30pm 13.2 10.0 7.0 66 3.0 N 13 28 7 15 1005.6 - 0.0
23/10:00pm 13.5 10.8 7.3 66 3.0 N 11 19 6 10 1006.1 1006.1 0.0
23/09:30pm 13.4 10.4 7.6 68 2.8 N 13 22 7 12 1006.5 - 0.0
23/09:00pm 13.0 10.8 7.9 71 2.5 NNE 9 13 5 7 1006.7 1006.7 0.0
23/08:30pm 13.5 9.8 7.9 69 2.8 NNE 17 20 9 11 1006.9 - 0.0
23/08:00pm 13.8 9.7 8.0 68 2.9 NNE 19 24 10 13 1007.3 1007.3 0.0
23/07:30pm 13.8 10.7 7.3 65 3.2 N 13 20 7 11 1007.4 - 0.0
23/07:00pm 13.9 10.7 7.0 63 3.4 N 13 19 7 10 1007.6 1007.6 0.0
23/06:30pm 14.0 11.1 6.4 60 3.7 N 11 20 6 11 1007.9 - 0.0
23/06:00pm 14.2 11.4 6.8 61 3.6 NNW 11 19 6 10 1007.9 1007.9 0.0
23/05:30pm 13.2 10.8 6.8 65 3.1 NNW 9 11 5 6 1007.9 - 0.0
23/05:00pm 15.2 14.0 8.2 63 3.5 NNW 4 6 2 3 1008.2 1008.2 0.0
23/04:30pm 15.7 13.7 8.7 63 3.6 NNW 9 11 5 6 1008.3 - 0.0
23/04:00pm 16.7 14.6 5.9 49 5.2 NW 6 7 3 4 1008.8 1008.8 0.0
23/03:30pm 16.8 14.0 5.1 46 5.6 NW 9 15 5 8 1009.0 - 0.0
23/03:00pm 16.8 14.6 5.4 47 5.5 NNW 6 7 3 4 1009.3 1009.3 0.0
23/02:30pm 16.8 14.4 5.4 47 5.5 N 7 13 4 7 1009.4 - 0.0
23/02:00pm 17.1 13.6 5.4 46 5.6 N 13 19 7 10 1010.0 1010.0 0.0
23/01:30pm 16.9 14.1 5.2 46 5.6 N 9 17 5 9 1010.4 - 0.0
23/01:00pm 16.7 14.1 5.9 49 5.2 N 9 15 5 8 1010.7 1010.7 0.0
23/12:30pm 17.0 13.2 4.0 42 6.1 N 13 22 7 12 1011.1 - 0.0
23/12:00pm 16.6 12.1 4.3 44 5.8 NW 17 24 9 13 1011.6 1011.6 0.0
23/11:30am 16.3 13.4 4.7 46 5.5 NW 9 15 5 8 1012.1 - 0.0
23/11:00am 16.2 13.5 5.5 49 5.1 N 9 15 5 8 1012.4 1012.4 0.0
23/10:30am 15.4 13.3 5.9 53 4.6 N 6 13 3 7 1012.8 - 0.0
23/10:00am 15.2 12.6 6.2 55 4.3 N 9 20 5 11 1013.4 1013.4 0.0
23/09:30am 14.2 11.5 5.8 57 4.0 N 9 15 5 8 1013.9 - 0.0
23/09:00am 14.2 11.5 5.8 57 4.0 NNW 9 17 5 9 1014.0 1014.0 0.0
23/08:30am 13.7 10.7 6.1 60 3.6 N 11 17 6 9 1014.0 - 0.0
23/08:00am 12.7 10.7 6.3 65 3.0 N 6 11 3 6 1013.9 1013.9 0.0
23/07:30am 11.3 8.6 5.4 67 2.7 NNW 9 13 5 7 1014.0 - 0.0
23/07:00am 10.6 7.4 5.2 69 2.5 NNW 11 15 6 8 1013.8 1013.8 0.0
23/06:30am 11.0 7.4 5.1 67 2.7 NNW 13 15 7 8 1013.8 - 0.0
23/06:00am 11.0 7.4 5.1 67 2.7 NNW 13 17 7 9 1013.8 1013.8 0.0
23/05:30am 11.4 7.9 5.3 66 2.8 NNW 13 19 7 10 1013.8 - 0.0
23/05:00am 11.1 8.7 5.4 68 2.6 NNW 7 15 4 8 1013.7 1013.7 0.0
23/04:30am 11.0 7.8 5.3 68 2.6 NNW 11 15 6 8 1013.6 - 0.0
23/04:00am 10.8 7.9 4.9 67 2.7 NW 9 15 5 8 1013.5 1013.5 0.0
23/03:30am 11.5 8.0 5.4 66 2.8 NNW 13 19 7 10 1013.3 - 0.0
23/03:00am 10.4 6.8 5.0 69 2.4 NNW 13 19 7 10 1013.5 1013.5 0.0
23/02:30am 11.6 7.7 5.3 65 2.9 NW 15 22 8 12 1013.5 - 0.0
23/02:00am 11.2 7.2 5.1 66 2.8 NNW 15 24 8 13 1013.6 1013.6 0.0
23/01:30am 11.9 8.3 5.1 63 3.1 NNW 13 20 7 11 1013.5 - 0.0
23/01:00am 12.0 8.2 5.6 65 3.0 NNW 15 22 8 12 1013.4 1013.4 0.0
23/12:30am 12.3 9.1 5.2 62 3.3 NW 11 19 6 10 1013.4 - 0.0
23/12:00am 12.5 8.5 5.0 60 3.5 NW 15 22 8 12 1013.3 1013.3 0.0
 
Date/Time
EST
Temp
°C
App
Temp
°C
Dew
Point
Rel
Hum
%
Delta-T
°C
Wind Press
QNH
hPa
Press
MSL
hPa
Rain
since 9 am
mm
Dir
 
Spd
km/h
Gust
km/h
Spd
kts
Gust
kts
22/11:30pm 12.3 8.2 4.3 58 3.6 NW 15 20 8 11 1013.2 - 0.0
22/11:00pm 12.5 8.3 4.0 56 3.8 WNW 15 22 8 12 1013.1 1013.1 0.0
22/10:30pm 12.3 8.1 3.8 56 3.8 WNW 15 20 8 11 1013.1 - 0.0
22/10:00pm 11.9 7.8 4.6 61 3.3 NW 15 20 8 11 1013.0 1013.0 0.0
22/09:30pm 12.4 8.5 5.3 62 3.3 WNW 15 19 8 10 1012.6 - 0.0
22/09:00pm 12.8 9.5 6.4 65 3.0 W 13 19 7 10 1012.2 1012.2 0.0
22/08:30pm 13.7 9.1 5.8 59 3.7 WNW 19 28 10 15 1011.7 - 0.0
22/08:00pm 14.3 11.1 4.9 53 4.4 WNW 11 19 6 10 1011.6 1011.6 0.0
22/07:30pm 14.4 11.8 4.1 50 4.7 WNW 7 17 4 9 1011.2 - 0.0
22/07:00pm 14.6 9.8 4.9 52 4.5 W 19 28 10 15 1010.6 1010.6 0.0
22/06:30pm 14.2 11.6 4.2 51 4.6 WNW 7 13 4 7 1010.3 - 0.0
22/06:00pm 13.9 11.1 3.1 48 4.8 WNW 7 13 4 7 1009.8 1009.8 0.0
22/05:30pm 14.5 7.7 3.3 47 5.1 W 28 41 15 22 1009.2 - 0.0
22/05:00pm 15.2 9.6 3.7 46 5.3 W 22 33 12 18 1008.8 1008.8 0.0
22/04:30pm 16.0 9.8 4.4 46 5.4 W 26 37 14 20 1008.7 - 0.0
22/04:00pm 16.6 9.6 4.3 44 5.8 W 30 39 16 21 1008.3 1008.3 0.0
22/03:30pm 16.8 9.4 4.2 43 5.9 W 32 44 17 24 1008.1 - 0.0
22/03:00pm 17.6 11.1 4.9 43 6.1 W 28 41 15 22 1008.0 1008.0 0.0
22/02:30pm 17.5 10.1 6.7 49 5.4 W 35 43 19 23 1007.4 - 0.0
22/02:00pm 17.5 11.9 10.1 62 3.9 WSW 30 37 16 20 1007.1 1007.1 0.0
22/01:30pm 17.7 13.9 11.3 66 3.5 WSW 22 28 12 15 1006.9 - 0.0
22/01:00pm 18.0 15.9 13.5 75 2.6 SW 17 20 9 11 1006.7 1006.7 0.0
22/12:37pm 18.0 12.2 9.6 58 4.4 W 30 48 16 26 1006.0 - 0.0
22/12:30pm 18.0 14.1 9.6 58 4.4 WSW 20 28 11 15 1006.1 - 0.0
22/12:00pm 20.8 17.6 8.4 45 6.5 W 15 28 8 15 1006.0 1006.0 0.0
22/11:30am 19.0 16.0 10.6 58 4.5 W 17 24 9 13 1006.1 - 0.0
22/11:00am 17.8 15.1 10.2 61 4.1 W 15 20 8 11 1005.9 1005.9 0.0
22/10:30am 17.3 15.7 11.6 69 3.1 W 11 15 6 8 1005.6 - 0.0
22/10:00am 17.4 15.8 10.3 63 3.8 WNW 9 17 5 9 1005.7 1005.7 0.0
22/09:30am 16.9 16.9 11.2 69 3.1 WNW 2 6 1 3 1005.5 - 0.0
22/09:00am 17.6 15.5 9.8 60 4.1 WNW 11 19 6 10 1005.4 1005.4 3.0
22/08:30am 17.7 13.8 9.6 59 4.3 WNW 20 30 11 16 1005.1 - 3.0
22/08:00am 17.8 14.2 9.7 59 4.3 WNW 19 33 10 18 1005.1 1005.1 3.0
22/07:30am 17.1 13.5 10.0 63 3.7 WNW 19 32 10 17 1004.3 - 3.0
22/07:00am 16.7 14.0 10.3 66 3.4 NW 15 22 8 12 1004.2 1004.2 3.0
22/06:30am 17.0 14.4 10.8 67 3.3 NNW 15 26 8 14 1003.9 - 3.0
22/06:00am 15.9 13.7 10.7 71 2.8 N 13 17 7 9 1003.5 1003.5 3.0
22/05:30am 15.9 13.7 10.9 72 2.7 N 13 19 7 10 1003.1 - 3.0
22/05:00am 15.0 12.5 11.2 78 2.0 N 15 20 8 11 1003.0 1003.0 3.0
22/04:30am 14.7 11.5 11.3 80 1.8 N 19 24 10 13 1002.9 - 3.0
22/04:00am 14.5 11.7 11.3 81 1.7 N 17 22 9 12 1002.7 1002.7 3.0
22/03:30am 14.9 12.1 11.3 79 1.9 N 17 26 9 14 1002.9 - 3.0
22/03:00am 14.8 12.6 10.8 77 2.1 N 13 28 7 15 1003.2 1003.2 3.0
22/02:30am 14.3 10.2 11.3 82 1.6 NNE 24 33 13 18 1003.5 - 3.0
22/02:00am 14.5 9.2 11.1 80 1.8 NNE 30 41 16 22 1003.7 1003.7 3.0
22/01:30am 14.6 8.3 11.0 79 1.9 NNE 35 43 19 23 1004.5 - 3.0
22/01:00am 14.4 6.9 10.8 79 1.9 NNE 41 54 22 29 1004.8 1004.8 3.0
22/12:30am 14.1 7.3 10.7 80 1.8 N 37 59 20 32 1005.7 - 3.0
22/12:00am 13.7 7.6 10.5 81 1.7 NNE 33 54 18 29 1006.5 1006.5 3.0
 
Date/Time
EST
Temp
°C
App
Temp
°C
Dew
Point
Rel
Hum
%
Delta-T
°C
Wind Press
QNH
hPa
Press
MSL
hPa
Rain
since 9 am
mm
Dir
 
Spd
km/h
Gust
km/h
Spd
kts
Gust
kts
21/11:52pm 13.5 8.0 10.5 82 1.6 N 30 54 16 29 1007.0 - 3.0
21/11:30pm 13.0 7.9 10.5 85 1.3 NNE 28 41 15 22 1007.6 - 3.0
21/11:00pm 12.5 8.2 10.7 89 0.9 NNE 24 33 13 18 1008.4 1008.4 2.8
21/10:30pm 12.6 8.3 10.8 89 0.9 NNE 24 33 13 18 1009.0 - 2.6
21/10:00pm 12.2 9.3 11.1 93 0.6 NNE 17 22 9 12 1009.8 1009.8 2.4
21/09:30pm 11.8 8.9 10.9 94 0.5 NNE 17 20 9 11 1010.1 - 2.2
21/09:00pm 11.7 10.2 10.6 93 0.6 NNE 9 15 5 8 1010.6 1010.6 1.6
21/08:30pm 11.7 9.4 10.3 91 0.7 NNE 13 15 7 8 1010.9 - 1.0
21/08:00pm 12.0 9.3 10.2 89 0.9 NNE 15 22 8 12 1011.0 1011.0 0.2
21/07:30pm 12.1 10.0 9.7 85 1.2 NNE 11 19 6 10 1011.4 - 0.0
21/07:00pm 12.8 10.3 9.6 81 1.6 NNE 13 20 7 11 1011.6 1011.6 0.0
21/06:30pm 12.8 9.1 9.6 81 1.6 NNE 19 26 10 14 1011.8 - 0.0
21/06:00pm 13.1 9.9 8.6 74 2.3 NNE 15 24 8 13 1012.2 1012.2 0.0
21/05:30pm 13.2 9.2 8.1 71 2.5 NNE 19 26 10 14 1012.7 - 0.0
21/05:00pm 13.4 9.4 8.3 71 2.5 NE 19 24 10 13 1012.8 1012.8 0.0
21/04:30pm 13.4 9.5 7.2 66 3.0 NNE 17 22 9 12 1013.2 - 0.0
21/04:00pm 13.5 8.9 6.6 63 3.3 NNE 20 26 11 14 1013.5 1013.5 0.0
21/03:30pm 13.7 7.9 6.3 61 3.5 NNE 26 35 14 19 1013.5 - 0.0
21/03:00pm 13.3 8.1 5.7 60 3.6 NNE 22 32 12 17 1014.2 1014.2 0.0
21/02:30pm 13.5 6.8 5.4 58 3.8 NE 30 35 16 19 1014.6 - 0.0
21/02:00pm 14.1 7.3 5.2 55 4.2 NE 30 39 16 21 1015.0 1015.0 0.0
21/01:30pm 13.0 6.2 4.9 58 3.7 NE 30 37 16 20 1015.1 - 0.0
21/01:00pm 13.5 7.2 3.6 51 4.5 NE 26 33 14 18 1015.7 1015.7 0.0
21/12:30pm 14.4 8.5 3.8 49 4.8 ENE 24 30 13 16 1016.4 - 0.0
21/12:00pm 14.3 8.5 2.2 44 5.3 NE 22 26 12 14 1016.7 1016.7 0.0
21/11:30am 13.6 8.7 1.9 45 5.1 ENE 17 20 9 11 1017.4 - 0.0
21/11:00am 13.0 10.0 0.7 43 5.2 N 6 7 3 4 1017.9 1017.9 0.0
21/10:30am 12.4 9.7 2.8 52 4.2 N 6 7 3 4 1018.2 - 0.0
21/10:00am 11.9 9.0 2.6 53 4.0 N 7 9 4 5 1018.1 1018.1 0.0
21/09:30am 12.2 10.1 1.8 49 4.4 N 2 6 1 3 1018.5 - 0.0
21/09:00am 10.5 7.6 2.6 58 3.4 N 7 9 4 5 1018.8 1018.8 0.2
21/08:30am 10.0 7.4 3.3 63 2.9 N 6 7 3 4 1018.9 - 0.2
21/08:00am 9.3 5.9 1.7 59 3.1 NNW 9 11 5 6 1018.7 1018.7 0.2
21/07:30am 8.9 3.9 1.6 60 3.0 NW 17 24 9 13 1018.3 - 0.2
21/07:00am 7.5 3.7 1.8 67 2.3 NNW 11 19 6 10 1018.2 1018.2 0.2
21/06:30am 7.5 3.7 1.8 67 2.3 NNW 11 15 6 8 1017.9 - 0.2
21/06:00am 8.0 3.8 1.6 64 2.6 NNW 13 17 7 9 1017.6 1017.6 0.2
21/05:30am 8.2 4.0 1.6 63 2.7 NW 13 19 7 10 1017.4 - 0.2
21/05:00am 8.0 3.8 1.6 64 2.6 NW 13 20 7 11 1017.2 1017.2 0.2
21/04:30am 7.9 3.3 1.7 65 2.5 WNW 15 20 8 11 1016.9 - 0.2
21/04:00am 8.2 3.3 2.0 65 2.6 NW 17 22 9 12 1016.7 1016.7 0.2
21/03:30am 7.8 3.4 2.5 69 2.2 WNW 15 19 8 10 1016.4 - 0.2
21/03:00am 8.3 3.9 2.5 67 2.4 NW 15 20 8 11 1016.3 1016.3 0.2
21/02:30am 8.7 4.0 2.9 67 2.5 W 17 22 9 12 1016.4 - 0.2
21/02:00am 8.2 3.5 3.1 70 2.2 W 17 22 9 12 1016.2 1016.2 0.2
21/01:30am 7.8 3.8 3.1 72 2.0 WNW 13 19 7 10 1016.4 - 0.2
21/01:00am 8.7 4.3 2.7 66 2.5 WNW 15 19 8 10 1016.1 1016.1 0.2
21/12:30am 8.5 4.4 2.1 64 2.7 WNW 13 17 7 9 1015.8 - 0.0
21/12:00am 10.9 4.0 2.7 57 3.5 W 28 37 15 20 1015.5 1015.5 0.0
 
Date/Time
EST
Temp
°C
App
Temp
°C
Dew
Point
Rel
Hum
%
Delta-T
°C
Wind Press
QNH
hPa
Press
MSL
hPa
Rain
since 9 am
mm
Dir
 
Spd
km/h
Gust
km/h
Spd
kts
Gust
kts
20/11:30pm 11.1 2.8 2.2 54 3.8 W 35 41 19 22 1015.3 - 0.0
20/11:00pm 11.1 3.4 3.4 59 3.4 W 33 41 18 22 1015.2 1015.2 0.0

Other Formats:

Comma delimited format used in spreadsheet applications
http://www.bom.gov.au/fwo/IDT60801/IDT60801.94951.axf

JavaScript Object Notation format (JSON) in row-major order
http://www.bom.gov.au/fwo/IDT60801/IDT60801.94951.json